Terminal Aerodrome Forecast
Issued by NWS Upton, NY

Home | Current Version | Previous Version | Text Only | Print | Product List | Glossary On
Versions: 1 2 3 4 5 6 7 8 9 10 11 12 13 14 15 16 17 18 19 20 21 22 23 24 25 26 27 28 29 30 31 32 33
000
FTUS41 KOKX 272057 AAC
TAFJFK
TAF AMD
KJFK 272057Z 2721/2824 18022G28KT P6SM VCSH FEW035 SCT060
      TEMPO 2723/2801 -SHRA SCT020 BKN040
     FM280100 19015KT P6SM SCT010 BKN040
     FM280400 19010KT P6SM SCT010 BKN040
     FM280700 19007KT 5SM BR BKN010
     FM281400 19013KT P6SM SCT012 BKN200
     FM281800 19016G21KT P6SM FEW020 BKN040=

USA.gov is the U.S. government's official web portal to all federal, state and local government web resources and services.